Time;durP1;ratioP1;P1;durP2;ratioP2;P2;SDS_P1;SDS_P2;PMS_P1;PMS_P2;Temp;Humidity;BMP_temperature;BMP_pressure;BME280_temperature;BME280_humidity;BME280_pressure;Samples;Min_cycle;Max_cycle;Signal;HPM_P1;HPM_P2
2022/04/07 00:02:28;;;;;;;2.20;1.90;;;12.50;99.40;;;;;;4926159;29;20462;-83
2022/04/07 00:05:00;;;;;;;3.07;2.20;;;12.70;98.40;;;;;;4926242;29;20557;-83
2022/04/07 00:07:30;;;;;;;3.30;2.33;;;12.80;97.90;;;;;;4930023;29;20488;-82
2022/04/07 00:09:57;;;;;;;2.40;2.20;;;12.70;98.20;;;;;;4927229;29;20537;-84
2022/04/07 00:12:23;;;;;;;2.47;2.00;;;12.60;98.40;;;;;;4915076;29;20471;-83
2022/04/07 00:14:58;;;;;;;2.43;1.87;;;12.50;98.80;;;;;;4919590;29;20496;-82
2022/04/07 00:17:33;;;;;;;2.77;1.90;;;12.50;98.60;;;;;;4911439;29;20485;-82
2022/04/07 00:20:00;;;;;;;1.93;1.80;;;12.70;97.60;;;;;;4916712;29;20521;-83
2022/04/07 00:22:26;;;;;;;1.80;1.70;;;12.70;97.50;;;;;;4930824;29;20488;-83
2022/04/07 00:24:53;;;;;;;2.17;1.87;;;12.70;97.60;;;;;;4927943;29;20986;-82
2022/04/07 00:27:20;;;;;;;2.60;1.80;;;12.50;97.80;;;;;;4927477;28;20490;-83
2022/04/07 00:29:47;;;;;;;2.23;1.30;;;12.40;97.80;;;;;;4932513;29;20477;-83
2022/04/07 00:32:13;;;;;;;2.47;1.20;;;12.40;97.90;;;;;;4928181;29;20525;-84
2022/04/07 00:34:44;;;;;;;3.30;1.40;;;12.60;97.40;;;;;;4913810;29;20518;-84
2022/04/07 00:37:10;;;;;;;2.00;1.13;;;12.80;96.50;;;;;;4926515;28;20485;-84
2022/04/07 00:39:37;;;;;;;3.17;1.17;;;12.80;96.30;;;;;;4927308;29;20461;-84
2022/04/07 00:42:05;;;;;;;1.30;1.20;;;12.60;96.60;;;;;;4932213;29;20501;-84
2022/04/07 00:44:32;;;;;;;1.50;1.00;;;12.60;96.90;;;;;;4937157;29;20481;-83
2022/04/07 00:46:58;;;;;;;3.23;1.10;;;12.40;97.10;;;;;;4938913;28;20480;-83
2022/04/07 00:49:53;;;;;;;0.90;0.80;;;12.30;97.40;;;;;;4932244;28;20498;-83
2022/04/07 00:52:35;;;;;;;0.70;0.70;;;12.60;96.30;;;;;;4906982;29;20461;-83
2022/04/07 00:55:02;;;;;;;1.37;1.27;;;12.50;96.00;;;;;;4919073;29;20460;-83
2022/04/07 00:57:29;;;;;;;1.27;1.00;;;12.40;95.90;;;;;;4931540;29;22785;-84
2022/04/07 01:00:13;;;;;;;1.73;0.90;;;12.40;95.90;;;;;;4913816;29;20548;-84
2022/04/07 01:02:45;;;;;;;0.97;0.87;;;12.30;96.20;;;;;;4932083;29;20558;-84
2022/04/07 01:05:20;;;;;;;2.60;1.10;;;12.30;96.20;;;;;;4916929;29;20457;-83
2022/04/07 01:07:47;;;;;;;1.93;0.90;;;12.20;96.50;;;;;;4931072;29;20474;-84
2022/04/07 01:10:14;;;;;;;3.10;1.10;;;12.50;96.30;;;;;;4931289;29;20489;-85
2022/04/07 01:12:40;;;;;;;1.90;0.80;;;12.70;95.70;;;;;;4932861;29;20457;-83
2022/04/07 01:15:08;;;;;;;1.80;0.90;;;12.70;95.70;;;;;;4932907;29;20449;-83
2022/04/07 01:17:35;;;;;;;1.07;0.87;;;12.60;95.70;;;;;;4931669;28;20476;-82
2022/04/07 01:20:07;;;;;;;0.90;0.90;;;12.40;96.40;;;;;;4931444;29;20831;-81
2022/04/07 01:22:40;;;;;;;1.47;0.80;;;12.70;96.00;;;;;;4930972;29;20453;-86
2022/04/07 01:25:08;;;;;;;2.07;0.80;;;12.90;95.60;;;;;;4932638;29;20466;-84
2022/04/07 01:28:02;;;;;;;0.60;0.60;;;13.00;95.40;;;;;;4933984;29;20486;-84
2022/04/07 01:30:47;;;;;;;0.90;0.70;;;12.90;95.00;;;;;;4920125;29;20490;-83
2022/04/07 01:33:13;;;;;;;0.70;0.70;;;12.70;95.70;;;;;;4932951;29;20453;-85
2022/04/07 01:35:40;;;;;;;1.80;0.90;;;12.80;95.50;;;;;;4935511;29;20537;-85
2022/04/07 01:38:07;;;;;;;5.30;1.00;;;12.80;95.40;;;;;;4940441;29;20485;-84
2022/04/07 01:40:35;;;;;;;1.00;0.87;;;12.80;95.40;;;;;;4933472;29;20457;-82
2022/04/07 01:43:05;;;;;;;0.70;0.60;;;12.70;95.50;;;;;;4951495;28;20446;-84
2022/04/07 01:45:33;;;;;;;1.27;0.70;;;12.70;95.90;;;;;;4936279;28;20516;-85
2022/04/07 01:48:04;;;;;;;0.60;0.60;;;12.50;96.10;;;;;;4953715;28;20604;-83
2022/04/07 01:50:32;;;;;;;2.30;1.03;;;12.60;96.10;;;;;;4936639;29;20482;-85
2022/04/07 01:52:59;;;;;;;1.10;1.00;;;12.70;96.00;;;;;;4932349;29;20457;-84
2022/04/07 01:55:28;;;;;;;1.10;0.70;;;12.70;96.00;;;;;;4920363;29;20454;-83
2022/04/07 01:57:55;;;;;;;1.13;0.90;;;12.70;95.90;;;;;;4928440;29;20616;-84
2022/04/07 02:00:23;;;;;;;1.23;0.63;;;12.60;96.20;;;;;;4933068;28;20466;-85
2022/04/07 02:02:50;;;;;;;1.37;0.80;;;12.50;96.30;;;;;;4931719;29;20470;-80
2022/04/07 02:05:17;;;;;;;0.80;0.70;;;12.60;96.50;;;;;;4934914;29;20461;-84
2022/04/07 02:07:44;;;;;;;0.67;0.67;;;12.60;96.40;;;;;;4938831;28;20489;-82
2022/04/07 02:10:13;;;;;;;0.80;0.80;;;12.60;96.50;;;;;;4916306;29;21247;-83
2022/04/07 02:12:41;;;;;;;0.90;0.57;;;12.70;96.40;;;;;;4933352;29;20461;-83
2022/04/07 02:15:09;;;;;;;2.67;0.80;;;12.60;96.70;;;;;;4933879;29;20461;-83
2022/04/07 02:17:36;;;;;;;3.57;0.97;;;12.70;96.20;;;;;;4931812;28;20551;-82
2022/04/07 02:20:06;;;;;;;2.40;0.80;;;12.70;96.30;;;;;;4929340;29;20469;-82
2022/04/07 02:22:34;;;;;;;1.53;0.70;;;12.70;96.10;;;;;;4919600;29;20516;-83
2022/04/07 02:25:01;;;;;;;1.40;1.30;;;12.60;96.10;;;;;;4933986;29;20472;-82
2022/04/07 02:27:36;;;;;;;1.30;0.70;;;12.50;96.40;;;;;;4914507;29;21498;-83
2022/04/07 02:30:14;;;;;;;1.73;0.80;;;12.30;96.80;;;;;;4924459;29;20492;-83
2022/04/07 02:32:42;;;;;;;2.47;0.90;;;12.40;97.00;;;;;;4930231;29;20458;-82
2022/04/07 02:35:10;;;;;;;0.67;0.57;;;12.70;96.40;;;;;;4926108;29;20484;-83
2022/04/07 02:37:37;;;;;;;1.67;0.87;;;12.70;96.00;;;;;;4909912;29;20513;-83
2022/04/07 02:40:05;;;;;;;1.10;0.70;;;12.80;95.50;;;;;;4928997;29;20453;-84
2022/04/07 02:42:32;;;;;;;2.97;0.80;;;12.70;95.80;;;;;;4926492;29;20480;-84
2022/04/07 02:44:59;;;;;;;1.23;1.10;;;12.80;95.90;;;;;;4927610;29;20474;-84
2022/04/07 02:47:34;;;;;;;0.70;0.70;;;12.80;95.70;;;;;;4941272;29;20485;-85
2022/04/07 02:50:01;;;;;;;1.50;0.83;;;12.80;95.80;;;;;;4931911;29;20488;-84
2022/04/07 02:52:28;;;;;;;1.77;0.70;;;12.70;95.80;;;;;;4914911;29;20461;-83
2022/04/07 02:54:57;;;;;;;1.13;0.70;;;12.70;96.00;;;;;;4926377;29;20516;-83
2022/04/07 02:57:25;;;;;;;0.90;0.57;;;12.70;96.30;;;;;;4927555;29;20481;-83
2022/04/07 02:59:52;;;;;;;0.60;0.50;;;12.70;96.30;;;;;;4929645;29;20457;-84
2022/04/07 03:02:19;;;;;;;1.50;0.70;;;12.70;96.40;;;;;;4931967;29;20509;-83
2022/04/07 03:04:46;;;;;;;2.17;0.57;;;12.50;96.70;;;;;;4933224;29;20472;-84
2022/04/07 03:07:16;;;;;;;0.97;0.63;;;12.30;97.30;;;;;;4917226;29;20481;-83
2022/04/07 03:09:43;;;;;;;0.60;0.60;;;12.50;97.30;;;;;;4907911;29;20545;-84
2022/04/07 03:12:11;;;;;;;1.13;0.50;;;12.30;97.70;;;;;;4919374;29;20572;-84
2022/04/07 03:14:40;;;;;;;0.80;0.60;;;12.30;98.20;;;;;;4914242;29;20964;-85
2022/04/07 03:17:08;;;;;;;1.43;0.60;;;12.50;97.60;;;;;;4910079;29;20481;-84
2022/04/07 03:19:37;;;;;;;0.63;0.63;;;12.50;97.50;;;;;;4916995;29;20450;-85
2022/04/07 03:22:12;;;;;;;1.27;0.83;;;12.50;97.70;;;;;;4930373;29;20788;-85
2022/04/07 03:24:55;;;;;;;1.07;0.70;;;12.50;98.00;;;;;;4914509;29;20466;-84
2022/04/07 03:27:38;;;;;;;0.53;0.53;;;12.30;98.00;;;;;;4914130;29;20472;-84
2022/04/07 03:33:38;;;;;;;1.27;0.70;;;12.40;97.90;;;;;;4915238;29;20952;-83
2022/04/07 03:36:35;;;;;;;1.30;0.63;;;12.30;98.10;;;;;;4907073;29;20536;-84
2022/04/07 03:39:49;;;;;;;0.70;0.70;;;12.40;98.20;;;;;;4925077;29;20465;-82
2022/04/07 03:42:34;;;;;;;3.37;0.70;;;12.50;98.20;;;;;;4907629;29;20512;-84
2022/04/07 03:45:20;;;;;;;0.70;0.70;;;12.40;98.00;;;;;;4909447;29;20465;-83
2022/04/07 03:48:18;;;;;;;2.70;1.37;;;12.40;98.10;;;;;;4923697;29;20472;-83
2022/04/07 03:51:06;;;;;;;1.23;1.13;;;12.40;98.00;;;;;;4914088;29;20496;-83
2022/04/07 03:53:46;;;;;;;1.20;0.50;;;12.40;98.00;;;;;;4914047;29;20487;-83
2022/04/07 03:56:44;;;;;;;1.53;0.80;;;12.30;98.30;;;;;;4924034;29;20468;-83
2022/04/07 03:59:29;;;;;;;0.60;0.57;;;12.30;98.30;;;;;;4938476;29;20946;-84
2022/04/07 04:02:12;;;;;;;1.53;0.80;;;12.40;98.10;;;;;;4929359;29;20461;-84
2022/04/07 04:05:12;;;;;;;0.77;0.60;;;12.30;98.10;;;;;;4935396;29;20475;-83
2022/04/07 04:07:56;;;;;;;0.60;0.60;;;12.40;98.00;;;;;;4912830;29;21055;-85
2022/04/07 04:10:40;;;;;;;1.33;0.83;;;12.30;98.60;;;;;;4913744;29;21039;-84
2022/04/07 04:13:20;;;;;;;0.77;0.67;;;12.30;98.80;;;;;;4919641;29;20463;-85
2022/04/07 04:16:10;;;;;;;0.70;0.60;;;12.20;99.10;;;;;;4933470;29;21156;-83
2022/04/07 04:18:56;;;;;;;0.70;0.70;;;12.30;98.80;;;;;;4917693;29;20478;-84
2022/04/07 04:21:49;;;;;;;0.80;0.80;;;12.40;98.90;;;;;;4920142;29;20461;-85
2022/04/07 04:24:32;;;;;;;3.13;0.90;;;12.40;98.90;;;;;;4912634;29;20453;-82
2022/04/07 04:27:45;;;;;;;0.83;0.83;;;12.40;99.50;;;;;;4937114;28;20619;-85
2022/04/07 04:34:21;;;;;;;0.70;0.70;;;12.30;99.90;;;;;;4936831;29;20497;-84
2022/04/07 04:37:10;;;;;;;0.60;0.60;;;12.30;99.90;;;;;;4933771;28;20493;-84
2022/04/07 04:40:35;;;;;;;0.93;0.83;;;12.20;99.90;;;;;;4862148;29;21116;-84
2022/04/07 04:49:43;;;;;;;0.60;0.60;;;12.30;99.90;;;;;;4860900;29;20485;-83
2022/04/07 04:52:39;;;;;;;0.87;0.70;;;12.30;99.90;;;;;;4849125;29;20499;-82
2022/04/07 04:55:15;;;;;;;1.13;1.03;;;12.40;99.90;;;;;;4851308;29;20579;-83
2022/04/07 04:57:53;;;;;;;0.80;0.80;;;12.30;99.90;;;;;;4847312;29;20484;-84
2022/04/07 05:00:40;;;;;;;0.77;0.63;;;12.30;99.90;;;;;;4850579;29;20460;-84
2022/04/07 05:03:31;;;;;;;2.10;0.73;;;12.30;99.90;;;;;;4844279;29;20491;-84
2022/04/07 05:06:33;;;;;;;1.27;0.80;;;12.40;99.90;;;;;;4914924;28;20481;-83
2022/04/07 05:09:24;;;;;;;0.90;0.80;;;12.40;99.80;;;;;;4917253;29;20481;-84
2022/04/07 05:12:07;;;;;;;1.73;0.80;;;12.40;99.90;;;;;;4934353;29;20485;-86
2022/04/07 05:14:48;;;;;;;1.07;0.97;;;12.40;99.90;;;;;;4924300;29;20552;-84
2022/04/07 05:17:20;;;;;;;0.67;0.67;;;12.40;99.90;;;;;;4921273;29;20509;-84
2022/04/07 05:19:47;;;;;;;1.30;0.70;;;12.30;99.90;;;;;;4930462;29;20472;-84
2022/04/07 05:22:14;;;;;;;2.00;0.83;;;12.40;99.70;;;;;;4930760;29;20473;-84
2022/04/07 05:24:41;;;;;;;0.67;0.50;;;12.40;99.60;;;;;;4944639;29;20466;-86
2022/04/07 05:27:08;;;;;;;1.30;0.80;;;12.50;99.50;;;;;;4943741;29;21109;-83
2022/04/07 05:29:34;;;;;;;1.33;0.80;;;12.50;99.40;;;;;;4920956;29;20803;-84
2022/04/07 05:32:01;;;;;;;1.10;0.60;;;12.50;99.50;;;;;;4938357;29;20747;-80
2022/04/07 05:34:29;;;;;;;0.90;0.50;;;12.50;99.60;;;;;;4938022;29;20477;-80
2022/04/07 05:36:56;;;;;;;0.73;0.50;;;12.50;99.40;;;;;;4917164;29;20476;-83
2022/04/07 05:39:23;;;;;;;1.63;0.93;;;12.50;99.90;;;;;;4929248;29;20469;-83
2022/04/07 05:41:50;;;;;;;1.43;0.50;;;12.60;99.80;;;;;;4929314;29;20462;-84
2022/04/07 05:44:17;;;;;;;0.60;0.60;;;12.50;99.80;;;;;;4913235;29;20505;-83
2022/04/07 05:46:44;;;;;;;1.00;0.60;;;12.60;99.90;;;;;;4915544;29;20487;-84
2022/04/07 05:49:11;;;;;;;2.40;1.00;;;12.50;99.90;;;;;;4910261;29;21341;-83
2022/04/07 05:51:38;;;;;;;0.50;0.50;;;12.60;99.90;;;;;;4896460;29;20492;-83
2022/04/07 05:54:05;;;;;;;0.67;0.67;;;12.60;99.90;;;;;;4934993;29;20460;-84
2022/04/07 05:56:31;;;;;;;0.47;0.47;;;12.60;99.90;;;;;;4938905;28;21029;-81
2022/04/07 05:59:00;;;;;;;0.57;0.57;;;12.60;99.60;;;;;;4934247;29;20466;-83
2022/04/07 06:01:30;;;;;;;0.60;0.60;;;12.60;99.90;;;;;;4934704;29;20797;-83
2022/04/07 06:03:57;;;;;;;0.63;0.50;;;12.40;99.90;;;;;;4912022;29;20487;-84
2022/04/07 06:06:30;;;;;;;0.50;0.50;;;12.50;99.90;;;;;;4894530;29;20494;-83
2022/04/07 06:08:57;;;;;;;0.60;0.60;;;12.60;99.90;;;;;;4891544;29;20761;-84
2022/04/07 06:11:25;;;;;;;1.47;0.50;;;12.50;99.90;;;;;;4896697;29;20488;-85
2022/04/07 06:13:52;;;;;;;0.50;0.50;;;12.50;99.90;;;;;;4911292;29;20470;-83
2022/04/07 06:16:19;;;;;;;1.23;0.50;;;12.40;99.90;;;;;;4893919;29;21868;-85
2022/04/07 06:18:49;;;;;;;1.23;0.60;;;12.40;99.90;;;;;;4901219;29;21348;-86
2022/04/07 06:21:20;;;;;;;0.70;0.50;;;12.40;99.90;;;;;;4907775;29;20811;-83
2022/04/07 06:23:47;;;;;;;1.20;1.10;;;12.40;99.90;;;;;;4913294;29;20454;-83
2022/04/07 06:26:14;;;;;;;2.77;1.23;;;12.50;99.90;;;;;;4906952;29;20807;-83
2022/04/07 06:28:42;;;;;;;0.80;0.80;;;12.40;99.90;;;;;;4890112;29;21176;-84
2022/04/07 06:31:10;;;;;;;2.93;0.93;;;12.40;99.90;;;;;;4908905;29;20566;-83
2022/04/07 06:33:38;;;;;;;0.87;0.87;;;12.40;99.90;;;;;;4897036;29;20497;-85
2022/04/07 06:36:26;;;;;;;0.50;0.50;;;12.30;99.90;;;;;;4913344;29;20458;-84
2022/04/07 06:38:52;;;;;;;0.60;0.60;;;12.30;99.90;;;;;;4906449;29;20522;-82
2022/04/07 06:41:20;;;;;;;0.83;0.50;;;12.30;99.90;;;;;;4909190;29;20565;-81
2022/04/07 06:43:49;;;;;;;0.60;0.50;;;12.30;99.90;;;;;;4897095;29;21249;-83
2022/04/07 06:46:23;;;;;;;2.33;0.60;;;12.40;99.90;;;;;;4894853;29;20630;-84
2022/04/07 06:48:55;;;;;;;1.17;0.60;;;12.40;99.90;;;;;;4918162;29;20463;-83
2022/04/07 06:51:52;;;;;;;0.87;0.67;;;12.40;99.90;;;;;;4895824;29;20541;-83
2022/04/07 06:54:39;;;;;;;0.60;0.50;;;12.30;99.90;;;;;;4918393;29;20529;-83
2022/04/07 06:57:48;;;;;;;1.03;0.90;;;12.30;99.90;;;;;;4892550;29;20833;-83
2022/04/07 07:03:28;;;;;;;1.83;0.70;;;12.40;99.90;;;;;;4918306;29;20812;-83
2022/04/07 07:06:31;;;;;;;0.60;0.60;;;12.40;99.90;;;;;;4900529;29;20470;-83
2022/04/07 07:10:10;;;;;;;0.83;0.60;;;12.50;99.90;;;;;;4897783;29;20469;-82
2022/04/07 07:16:13;;;;;;;0.87;0.60;;;12.60;99.90;;;;;;4835264;29;21912;-82
2022/04/07 07:19:17;;;;;;;0.77;0.50;;;12.60;99.90;;;;;;4874129;29;20473;-85
2022/04/07 07:22:30;;;;;;;0.80;0.77;;;12.60;99.60;;;;;;4843050;29;20464;-85
2022/04/07 07:25:33;;;;;;;0.50;0.50;;;12.70;99.60;;;;;;4852045;29;20469;-84
2022/04/07 07:28:23;;;;;;;0.50;0.50;;;12.60;99.90;;;;;;4761556;29;20505;-82
2022/04/07 07:31:06;;;;;;;0.87;0.87;;;12.60;99.90;;;;;;4746070;30;20466;-85
2022/04/07 07:33:42;;;;;;;0.50;0.40;;;12.40;99.90;;;;;;4763464;29;20473;-84
2022/04/07 07:36:17;;;;;;;0.60;0.43;;;12.40;99.90;;;;;;4779557;29;20472;-84
2022/04/07 07:39:04;;;;;;;0.50;0.50;;;12.50;99.90;;;;;;4773274;29;20488;-84
2022/04/07 07:41:47;;;;;;;0.90;0.47;;;12.60;99.90;;;;;;4827849;29;20548;-83
2022/04/07 07:45:07;;;;;;;0.50;0.50;;;12.60;99.90;;;;;;4833599;29;20536;-84
2022/04/07 07:48:20;;;;;;;0.40;0.30;;;12.80;99.90;;;;;;4810870;29;20496;-83
2022/04/07 07:57:06;;;;;;;0.53;0.53;;;12.80;99.90;;;;;;4836793;29;20485;-85
2022/04/07 08:00:10;;;;;;;0.40;0.40;;;12.80;99.90;;;;;;4819409;29;20557;-85
2022/04/07 08:03:07;;;;;;;0.40;0.40;;;12.70;99.90;;;;;;4816357;29;20469;-84
2022/04/07 08:06:07;;;;;;;;;;;;;;;;;;;;;
2022/04/07 08:08:44;;;;;;;0.40;0.30;;;12.70;99.90;;;;;;4835014;29;20480;-83
2022/04/07 08:11:30;;;;;;;0.40;0.30;;;12.90;99.90;;;;;;4835690;29;20498;-84
2022/04/07 08:14:05;;;;;;;0.60;0.40;;;12.80;99.90;;;;;;4835050;29;20565;-84
2022/04/07 08:17:08;;;;;;;1.03;0.40;;;12.90;99.90;;;;;;4833364;29;20483;-83
2022/04/07 08:20:08;;;;;;;0.40;0.40;;;13.00;99.90;;;;;;4827479;29;20503;-82
2022/04/07 08:26:10;;;;;;;0.90;0.50;;;12.90;99.90;;;;;;4902824;29;20454;-83
2022/04/07 08:29:09;;;;;;;0.57;0.50;;;12.80;99.90;;;;;;4903092;29;20458;-83
2022/04/07 08:36:22;;;;;;;2.30;0.40;;;12.90;99.90;;;;;;4875904;29;20523;-82
2022/04/07 08:39:24;;;;;;;0.40;0.30;;;13.10;99.90;;;;;;4889450;29;20458;-83
2022/04/07 08:42:21;;;;;;;0.73;0.40;;;13.20;99.90;;;;;;4835125;29;20488;-85
2022/04/07 08:45:34;;;;;;;0.40;0.40;;;13.20;99.90;;;;;;4816532;29;20467;-82
2022/04/07 08:48:35;;;;;;;0.30;0.30;;;13.20;99.90;;;;;;4808433;29;21279;-85
2022/04/07 08:51:14;;;;;;;0.37;0.37;;;13.30;99.90;;;;;;4815877;29;20502;-86
2022/04/07 08:54:01;;;;;;;0.50;0.40;;;13.40;99.90;;;;;;4819351;29;20565;-83
2022/04/07 08:56:50;;;;;;;0.60;0.40;;;13.40;99.90;;;;;;4834067;29;20493;-86
2022/04/07 08:59:41;;;;;;;0.47;0.47;;;13.30;99.90;;;;;;4825816;29;21017;-84
2022/04/07 09:02:53;;;;;;;0.80;0.53;;;13.40;99.90;;;;;;4807359;29;21108;-84
2022/04/07 09:06:17;;;;;;;0.60;0.50;;;13.30;99.90;;;;;;4822009;29;20494;-85
2022/04/07 09:09:14;;;;;;;0.77;0.53;;;13.40;99.90;;;;;;4826558;29;21000;-82
2022/04/07 09:12:28;;;;;;;0.77;0.40;;;13.40;99.90;;;;;;4839726;29;20489;-84
2022/04/07 09:15:16;;;;;;;0.50;0.43;;;13.50;99.90;;;;;;4885944;29;20463;-85
2022/04/07 09:22:40;;;;;;;;;;;;;;;;;;;;;
2022/04/07 09:38:10;;;;;;;;;;;;;;;;;;;;;
2022/04/07 10:15:12;;;;;;;3.43;0.60;;;14.50;99.90;;;;;;4844293;29;20459;-83
2022/04/07 11:30:30;;;;;;;0.67;0.50;;;14.00;90.30;;;;;;4946620;28;21210;-83
2022/04/07 11:41:41;;;;;;;0.63;0.47;;;15.60;74.50;;;;;;4849049;29;21051;-82
2022/04/07 12:15:49;;;;;;;1.60;0.80;;;17.10;57.70;;;;;;4730227;30;20491;-84
2022/04/07 12:38:30;;;;;;;2.13;1.13;;;17.10;55.80;;;;;;4962293;23;20508;-84
2022/04/07 12:41:54;;;;;;;;;;;;;;;;;;;;;
2022/04/07 12:45:00;;;;;;;1.10;0.70;;;17.50;55.20;;;;;;4886126;28;20443;-82
2022/04/07 12:48:57;;;;;;;1.10;0.80;;;17.50;54.70;;;;;;4952506;28;20503;-82
2022/04/07 12:52:35;;;;;;;3.00;1.20;;;17.60;53.90;;;;;;4819717;29;20502;-84
2022/04/07 13:04:13;;;;;;;2.07;1.10;;;17.60;52.80;;;;;;4836631;29;20585;-82
2022/04/07 13:15:23;;;;;;;2.17;1.20;;;17.60;52.80;;;;;;4743654;30;20574;-84
2022/04/07 13:49:57;;;;;;;2.77;1.20;;;17.80;48.20;;;;;;4610346;30;20550;-82
2022/04/07 13:53:57;;;;;;;;;;;;;;;;;;;;;
2022/04/07 14:05:47;;;;;;;2.80;1.27;;;17.50;49.00;;;;;;4841188;29;20616;-83
2022/04/07 14:13:29;;;;;;;4.03;1.60;;;17.40;49.50;;;;;;4870399;29;20486;-81
2022/04/07 15:38:29;;;;;;;6.97;1.63;;;14.00;77.50;;;;;;6009105;23;20448;-82
2022/04/07 15:44:52;;;;;;;4.73;2.07;;;14.00;74.20;;;;;;5934602;23;20498;-83
2022/04/07 16:09:09;;;;;;;6.07;1.80;;;13.80;76.70;;;;;;6251306;23;20467;-85
2022/04/07 16:11:45;;;;;;;4.80;1.40;;;13.80;76.30;;;;;;6221565;23;20426;-84
2022/04/07 16:14:28;;;;;;;7.60;1.77;;;13.70;73.10;;;;;;6220712;23;20477;-84
2022/04/07 16:17:27;;;;;;;3.67;1.23;;;13.70;72.60;;;;;;6217581;23;20535;-82
2022/04/07 16:20:52;;;;;;;4.90;1.93;;;13.80;71.60;;;;;;6245449;23;20518;-84
2022/04/07 16:23:33;;;;;;;4.90;2.10;;;13.80;70.60;;;;;;6240451;23;20442;-83
2022/04/07 16:26:22;;;;;;;7.90;1.97;;;13.90;69.50;;;;;;6240408;23;20717;-81
2022/04/07 16:28:57;;;;;;;5.10;2.30;;;14.00;70.00;;;;;;6210539;23;20415;-84
2022/04/07 16:31:35;;;;;;;6.97;2.07;;;14.10;68.70;;;;;;6240328;23;20422;-82
2022/04/07 16:34:20;;;;;;;6.00;1.53;;;14.00;67.10;;;;;;6223753;23;20462;-82
2022/04/07 16:37:09;;;;;;;5.47;2.23;;;14.00;66.30;;;;;;6222923;23;20503;-83
2022/04/07 16:39:56;;;;;;;7.47;1.70;;;13.90;66.30;;;;;;6239361;23;20451;-83
2022/04/07 16:42:25;;;;;;;4.43;1.70;;;13.80;63.60;;;;;;6209237;23;20786;-82
2022/04/07 16:45:39;;;;;;;7.33;1.77;;;14.00;60.00;;;;;;6210514;23;20435;-82
2022/04/07 16:51:09;;;;;;;7.10;2.23;;;13.70;62.00;;;;;;6207027;23;20481;-82
2022/04/07 16:53:48;;;;;;;5.67;1.83;;;13.80;62.50;;;;;;6205422;23;20759;-82
2022/04/07 16:56:17;;;;;;;5.07;1.90;;;13.80;62.40;;;;;;6232220;23;20423;-82
2022/04/07 16:58:47;;;;;;;6.80;1.70;;;13.80;62.70;;;;;;6205908;23;21279;-84
2022/04/07 17:02:05;;;;;;;5.03;1.53;;;13.90;61.50;;;;;;6208125;23;20403;-81
2022/04/07 17:04:56;;;;;;;5.13;2.43;;;13.70;61.40;;;;;;6217179;23;20404;-82
2022/04/07 17:07:50;;;;;;;3.93;1.40;;;13.60;62.00;;;;;;6208578;23;20848;-82
2022/04/07 17:10:38;;;;;;;12.53;2.07;;;13.50;61.30;;;;;;6201833;23;20408;-83
2022/04/07 17:16:12;;;;;;;7.10;1.60;;;13.50;61.40;;;;;;6222881;23;20481;-82
2022/04/07 17:18:52;;;;;;;4.37;1.80;;;13.50;61.60;;;;;;6207335;23;20447;-81
2022/04/07 17:21:43;;;;;;;5.60;1.60;;;13.60;61.70;;;;;;6231296;23;20977;-82
2022/04/07 17:24:50;;;;;;;5.13;2.00;;;13.60;62.70;;;;;;6206415;23;20997;-81
2022/04/07 17:28:00;;;;;;;4.30;1.50;;;13.60;62.40;;;;;;6209493;23;20768;-81
2022/04/07 17:30:46;;;;;;;5.90;1.87;;;13.60;61.60;;;;;;6203902;23;20899;-80
2022/04/07 17:33:34;;;;;;;8.60;1.90;;;13.50;61.30;;;;;;6228492;23;20466;-82
2022/04/07 17:36:24;;;;;;;6.50;1.80;;;13.50;60.80;;;;;;6206475;23;21078;-83
2022/04/07 17:39:02;;;;;;;4.40;1.80;;;13.40;60.70;;;;;;6202192;23;20411;-81
2022/04/07 17:41:54;;;;;;;4.63;2.50;;;13.40;61.10;;;;;;6205758;23;20408;-82
2022/04/07 17:44:37;;;;;;;8.47;1.93;;;13.30;60.90;;;;;;6202984;23;20397;-83
2022/04/07 17:47:07;;;;;;;5.10;2.47;;;13.20;60.60;;;;;;6204426;23;20451;-80
2022/04/07 17:49:48;;;;;;;5.33;1.40;;;13.20;61.10;;;;;;6203693;23;20435;-82
2022/04/07 17:52:38;;;;;;;4.10;2.13;;;13.20;61.30;;;;;;6202754;23;20411;-83
2022/04/07 17:55:16;;;;;;;11.20;2.60;;;13.30;61.20;;;;;;6230259;23;20392;-83
2022/04/07 17:58:03;;;;;;;6.10;2.50;;;13.20;62.10;;;;;;6199792;23;20466;-81
2022/04/07 18:01:03;;;;;;;4.60;1.93;;;13.20;61.60;;;;;;6201019;23;20815;-83
2022/04/07 18:03:43;;;;;;;4.50;2.10;;;13.00;60.80;;;;;;6206529;23;20747;-83
2022/04/07 18:06:34;;;;;;;6.73;1.83;;;13.10;60.80;;;;;;6206633;23;20407;-82
2022/04/07 18:09:18;;;;;;;9.20;2.70;;;13.10;61.30;;;;;;6207450;23;20431;-82
2022/04/07 18:12:22;;;;;;;8.27;2.70;;;13.00;61.40;;;;;;6222082;22;20434;-82
2022/04/07 18:15:16;;;;;;;9.53;2.10;;;12.60;61.90;;;;;;6232513;23;20440;-82
2022/04/07 18:17:49;;;;;;;9.00;2.63;;;13.00;62.30;;;;;;6205274;23;21273;-83
2022/04/07 18:20:38;;;;;;;5.97;2.17;;;12.70;62.00;;;;;;6189092;23;20482;-83
2022/04/07 18:23:11;;;;;;;9.57;2.90;;;13.00;62.20;;;;;;6203338;23;20411;-82
2022/04/07 18:26:01;;;;;;;;;;;;;;;;;;;;;
2022/04/07 18:28:51;;;;;;;5.27;2.03;;;13.00;62.30;;;;;;6244218;23;20947;-86
2022/04/07 18:31:46;;;;;;;6.93;2.43;;;12.90;62.30;;;;;;6222429;23;20416;-85
2022/04/07 18:34:34;;;;;;;10.30;1.83;;;12.80;62.30;;;;;;6223281;23;20423;-85
2022/04/07 18:38:03;;;;;;;6.03;1.93;;;12.80;62.30;;;;;;6222309;23;20395;-84
2022/04/07 18:40:57;;;;;;;;;;;;;;;;;;;;;
2022/04/07 18:47:04;;;;;;;9.50;2.47;;;12.50;65.00;;;;;;6256037;23;20484;-85
2022/04/07 18:50:21;;;;;;;5.50;1.63;;;12.50;65.60;;;;;;6238013;23;20394;-85
2022/04/07 18:53:23;;;;;;;7.63;3.10;;;12.60;65.80;;;;;;6226097;23;20415;-82
2022/04/07 18:56:21;;;;;;;4.23;1.70;;;12.50;65.10;;;;;;6250690;23;21111;-84
2022/04/07 18:59:32;;;;;;;3.97;1.73;;;;;;;;;;6206627;23;20561;-84
2022/04/07 19:02:19;;;;;;;7.00;3.93;;;11.80;77.90;;;;;;6222916;23;20439;-82
2022/04/07 19:05:15;;;;;;;6.23;2.33;;;11.50;84.90;;;;;;6228142;23;20364;-86
2022/04/07 19:08:23;;;;;;;5.80;2.10;;;11.30;90.10;;;;;;6221725;23;20440;-85
2022/04/07 19:11:15;;;;;;;8.50;2.00;;;11.10;90.40;;;;;;6209726;23;20423;-83
2022/04/07 19:14:26;;;;;;;6.90;2.10;;;11.20;89.60;;;;;;6183307;23;20416;-81
2022/04/07 19:17:05;;;;;;;5.40;2.10;;;11.20;89.70;;;;;;6245111;23;20436;-82
2022/04/07 19:19:43;;;;;;;6.30;1.50;;;11.20;90.20;;;;;;6213787;23;20443;-83
2022/04/07 19:22:17;;;;;;;3.60;2.00;;;11.10;90.10;;;;;;6245722;23;20415;-83
2022/04/07 19:24:44;;;;;;;5.87;2.07;;;11.20;90.00;;;;;;6244032;23;20470;-83
2022/04/07 19:27:24;;;;;;;6.80;3.27;;;11.20;89.40;;;;;;6217061;23;20459;-84
2022/04/07 19:29:58;;;;;;;8.33;2.40;;;11.20;88.60;;;;;;6218500;23;20420;-83
2022/04/07 19:35:45;;;;;;;4.50;2.03;;;11.40;86.50;;;;;;6228503;23;20497;-84
2022/04/07 19:38:39;;;;;;;6.20;2.60;;;11.40;86.20;;;;;;6224493;23;20438;-83
2022/04/07 19:41:20;;;;;;;6.33;2.50;;;11.30;87.10;;;;;;6243282;23;20976;-83
2022/04/07 19:43:47;;;;;;;6.03;2.93;;;11.30;88.00;;;;;;6219736;23;20408;-84
2022/04/07 19:46:28;;;;;;;4.90;1.60;;;11.40;88.70;;;;;;6223041;23;20412;-83
2022/04/07 19:49:14;;;;;;;5.90;2.40;;;11.30;86.50;;;;;;6247418;23;20430;-82
2022/04/07 19:51:49;;;;;;;3.90;1.77;;;11.40;85.50;;;;;;6222050;23;20416;-84
2022/04/07 19:54:17;;;;;;;7.43;2.03;;;11.60;82.80;;;;;;6248046;23;20490;-83
2022/04/07 19:57:01;;;;;;;8.07;2.60;;;11.60;81.90;;;;;;6221714;23;20461;-85
2022/04/07 19:59:41;;;;;;;8.90;2.27;;;11.70;80.80;;;;;;6221400;23;20408;-84
2022/04/07 20:02:41;;;;;;;8.20;2.63;;;11.60;79.30;;;;;;6215997;23;20593;-84
2022/04/07 20:05:25;;;;;;;3.90;1.93;;;11.60;79.40;;;;;;6218612;23;20418;-83
2022/04/07 20:08:12;;;;;;;6.50;3.13;;;11.60;79.80;;;;;;6243503;23;20478;-85
2022/04/07 20:11:03;;;;;;;5.90;2.33;;;11.60;79.80;;;;;;6223169;23;20418;-83
2022/04/07 20:13:36;;;;;;;6.80;2.53;;;11.60;79.80;;;;;;6219046;23;20418;-84
2022/04/07 20:16:25;;;;;;;8.13;2.53;;;11.60;79.80;;;;;;6220281;23;20412;-84
2022/04/07 20:19:14;;;;;;;;;;;;;;;;;;;;;
2022/04/07 20:22:11;;;;;;;7.83;2.70;;;11.50;79.60;;;;;;6253958;23;20444;-84
2022/04/07 20:28:04;;;;;;;8.30;3.60;;;11.50;80.50;;;;;;6249146;23;20447;-85
2022/04/07 20:31:07;;;;;;;7.67;1.80;;;11.50;79.70;;;;;;6244603;23;20408;-83
2022/04/07 20:34:16;;;;;;;10.63;3.20;;;11.50;79.80;;;;;;6223784;23;20391;-83
2022/04/07 20:36:49;;;;;;;7.13;1.83;;;11.40;78.90;;;;;;6217703;23;20486;-83
2022/04/07 20:39:36;;;;;;;5.90;2.63;;;11.40;79.20;;;;;;6220090;23;20434;-82
2022/04/07 20:42:36;;;;;;;11.50;4.23;;;11.40;79.40;;;;;;6225326;23;20464;-84
2022/04/07 20:45:26;;;;;;;11.17;2.70;;;11.40;80.10;;;;;;6245384;23;20403;-85
2022/04/07 20:48:17;;;;;;;6.80;2.03;;;11.40;79.60;;;;;;6196184;22;20473;-82
2022/04/07 20:50:47;;;;;;;9.53;2.00;;;11.40;80.10;;;;;;6158060;23;20475;-85
2022/04/07 20:53:24;;;;;;;4.30;1.47;;;11.50;80.30;;;;;;6176858;23;20415;-85
2022/04/07 20:56:18;;;;;;;0.93;0.70;;;11.20;84.60;;;;;;6153391;23;20441;-82
2022/04/07 20:59:09;;;;;;;2.37;1.40;;;10.30;92.50;;;;;;6152322;23;20486;-87
2022/04/07 21:02:20;;;;;;;1.63;1.20;;;10.00;95.70;;;;;;6150940;23;20446;-83